sensor_id;sensor_type;location;lat;lon;timestamp;temperature;humidity
24017;DHT22;12222;50.090;19.702;2022-08-21T00:00:33;19.20;99.90
24017;DHT22;12222;50.090;19.702;2022-08-21T00:05:55;19.20;99.90
24017;DHT22;12222;50.090;19.702;2022-08-21T00:11:18;19.10;99.90
24017;DHT22;12222;50.090;19.702;2022-08-21T00:16:40;19.10;99.90
24017;DHT22;12222;50.090;19.702;2022-08-21T00:22:02;19.10;99.90
24017;DHT22;12222;50.090;19.702;2022-08-21T00:27:25;19.00;99.90
24017;DHT22;12222;50.090;19.702;2022-08-21T00:32:47;18.90;99.90
24017;DHT22;12222;50.090;19.702;2022-08-21T00:38:09;18.90;99.90
24017;DHT22;12222;50.090;19.702;2022-08-21T00:43:34;18.90;99.90
24017;DHT22;12222;50.090;19.702;2022-08-21T00:48:57;18.70;99.90
24017;DHT22;12222;50.090;19.702;2022-08-21T00:54:22;18.60;99.90
24017;DHT22;12222;50.090;19.702;2022-08-21T00:59:50;18.40;99.90
24017;DHT22;12222;50.090;19.702;2022-08-21T01:05:13;18.40;99.90
24017;DHT22;12222;50.090;19.702;2022-08-21T01:10:37;18.40;99.90
24017;DHT22;12222;50.090;19.702;2022-08-21T01:16:01;18.50;99.90
24017;DHT22;12222;50.090;19.702;2022-08-21T01:21:26;18.40;99.90
24017;DHT22;12222;50.090;19.702;2022-08-21T01:26:51;18.30;99.90
24017;DHT22;12222;50.090;19.702;2022-08-21T01:32:16;18.30;99.90
24017;DHT22;12222;50.090;19.702;2022-08-21T01:37:39;18.20;99.90
24017;DHT22;12222;50.090;19.702;2022-08-21T01:43:01;18.20;99.90
24017;DHT22;12222;50.090;19.702;2022-08-21T01:48:25;18.20;99.90
24017;DHT22;12222;50.090;19.702;2022-08-21T01:53:47;18.20;99.90
24017;DHT22;12222;50.090;19.702;2022-08-21T01:59:10;18.10;99.90
24017;DHT22;12222;50.090;19.702;2022-08-21T02:04:32;18.20;99.90
24017;DHT22;12222;50.090;19.702;2022-08-21T02:09:54;18.20;99.90
24017;DHT22;12222;50.090;19.702;2022-08-21T02:15:17;18.20;99.90
24017;DHT22;12222;50.090;19.702;2022-08-21T02:20:43;18.20;99.90
24017;DHT22;12222;50.090;19.702;2022-08-21T02:26:08;18.10;99.90
24017;DHT22;12222;50.090;19.702;2022-08-21T02:31:30;18.00;99.90
24017;DHT22;12222;50.090;19.702;2022-08-21T02:36:53;17.90;99.90
24017;DHT22;12222;50.090;19.702;2022-08-21T02:42:21;17.90;99.90
24017;DHT22;12222;50.090;19.702;2022-08-21T02:47:57;17.90;99.90
24017;DHT22;12222;50.090;19.702;2022-08-21T02:53:20;17.90;99.90
24017;DHT22;12222;50.090;19.702;2022-08-21T02:58:46;18.10;99.90
24017;DHT22;12222;50.090;19.702;2022-08-21T03:04:08;18.10;99.90
24017;DHT22;12222;50.090;19.702;2022-08-21T03:09:31;18.10;99.90
24017;DHT22;12222;50.090;19.702;2022-08-21T03:14:53;18.00;99.90
24017;DHT22;12222;50.090;19.702;2022-08-21T03:20:21;18.20;99.90
24017;DHT22;12222;50.090;19.702;2022-08-21T03:25:47;18.10;99.90
24017;DHT22;12222;50.090;19.702;2022-08-21T03:31:10;18.20;99.90
24017;DHT22;12222;50.090;19.702;2022-08-21T03:36:32;18.20;99.90
24017;DHT22;12222;50.090;19.702;2022-08-21T03:41:54;18.30;99.90
24017;DHT22;12222;50.090;19.702;2022-08-21T03:47:17;18.30;99.90
24017;DHT22;12222;50.090;19.702;2022-08-21T03:52:39;18.30;99.90
24017;DHT22;12222;50.090;19.702;2022-08-21T03:58:02;18.40;99.90
24017;DHT22;12222;50.090;19.702;2022-08-21T04:03:38;18.40;99.90
24017;DHT22;12222;50.090;19.702;2022-08-21T04:09:00;18.50;99.90
24017;DHT22;12222;50.090;19.702;2022-08-21T04:14:22;18.60;99.90
24017;DHT22;12222;50.090;19.702;2022-08-21T04:19:45;18.70;99.90
24017;DHT22;12222;50.090;19.702;2022-08-21T04:25:15;18.70;99.90
24017;DHT22;12222;50.090;19.702;2022-08-21T04:30:37;18.90;99.90
24017;DHT22;12222;50.090;19.702;2022-08-21T04:35:59;19.10;99.90
24017;DHT22;12222;50.090;19.702;2022-08-21T04:41:21;19.20;99.90
24017;DHT22;12222;50.090;19.702;2022-08-21T04:46:49;19.20;99.90
24017;DHT22;12222;50.090;19.702;2022-08-21T04:52:13;19.30;99.90
24017;DHT22;12222;50.090;19.702;2022-08-21T04:57:36;19.30;99.90
24017;DHT22;12222;50.090;19.702;2022-08-21T05:03:11;19.40;99.90
24017;DHT22;12222;50.090;19.702;2022-08-21T05:08:34;19.50;99.90
24017;DHT22;12222;50.090;19.702;2022-08-21T05:13:56;19.70;99.90
24017;DHT22;12222;50.090;19.702;2022-08-21T05:19:18;19.90;99.90
24017;DHT22;12222;50.090;19.702;2022-08-21T05:24:40;20.00;99.90
24017;DHT22;12222;50.090;19.702;2022-08-21T05:30:03;20.10;99.90
24017;DHT22;12222;50.090;19.702;2022-08-21T05:35:27;20.40;99.90
24017;DHT22;12222;50.090;19.702;2022-08-21T05:40:49;20.10;99.90
24017;DHT22;12222;50.090;19.702;2022-08-21T05:46:12;19.90;99.90
24017;DHT22;12222;50.090;19.702;2022-08-21T05:51:34;19.80;99.90
24017;DHT22;12222;50.090;19.702;2022-08-21T05:56:57;20.00;99.90
24017;DHT22;12222;50.090;19.702;2022-08-21T06:02:20;20.20;99.90
24017;DHT22;12222;50.090;19.702;2022-08-21T06:07:43;20.20;99.90
24017;DHT22;12222;50.090;19.702;2022-08-21T06:13:05;20.20;99.90
24017;DHT22;12222;50.090;19.702;2022-08-21T06:18:27;20.50;99.90
24017;DHT22;12222;50.090;19.702;2022-08-21T06:23:50;20.60;99.90
24017;DHT22;12222;50.090;19.702;2022-08-21T06:29:13;20.80;99.90
24017;DHT22;12222;50.090;19.702;2022-08-21T06:34:39;21.10;99.90
24017;DHT22;12222;50.090;19.702;2022-08-21T06:40:04;20.80;99.90
24017;DHT22;12222;50.090;19.702;2022-08-21T06:45:33;20.70;99.90
24017;DHT22;12222;50.090;19.702;2022-08-21T06:50:55;21.00;99.90
24017;DHT22;12222;50.090;19.702;2022-08-21T06:56:18;21.30;99.90
24017;DHT22;12222;50.090;19.702;2022-08-21T07:01:40;21.30;99.90
24017;DHT22;12222;50.090;19.702;2022-08-21T07:07:03;20.80;99.90
24017;DHT22;12222;50.090;19.702;2022-08-21T07:12:25;21.20;99.90
24017;DHT22;12222;50.090;19.702;2022-08-21T07:17:47;21.40;99.90
24017;DHT22;12222;50.090;19.702;2022-08-21T07:23:24;21.50;99.90
24017;DHT22;12222;50.090;19.702;2022-08-21T07:28:48;21.80;99.90
24017;DHT22;12222;50.090;19.702;2022-08-21T07:34:13;22.00;99.90
24017;DHT22;12222;50.090;19.702;2022-08-21T07:39:35;22.20;99.90
24017;DHT22;12222;50.090;19.702;2022-08-21T07:44:58;22.30;99.90
24017;DHT22;12222;50.090;19.702;2022-08-21T07:50:20;22.30;99.90
24017;DHT22;12222;50.090;19.702;2022-08-21T07:55:43;22.40;99.90
24017;DHT22;12222;50.090;19.702;2022-08-21T08:01:06;21.90;99.90
24017;DHT22;12222;50.090;19.702;2022-08-21T08:06:28;22.00;99.90
24017;DHT22;12222;50.090;19.702;2022-08-21T08:11:51;22.10;99.90
24017;DHT22;12222;50.090;19.702;2022-08-21T08:17:13;22.40;99.90
24017;DHT22;12222;50.090;19.702;2022-08-21T08:22:37;22.60;99.90
24017;DHT22;12222;50.090;19.702;2022-08-21T08:28:00;22.80;99.90
24017;DHT22;12222;50.090;19.702;2022-08-21T08:33:22;23.00;99.90
24017;DHT22;12222;50.090;19.702;2022-08-21T08:38:45;23.30;99.90
24017;DHT22;12222;50.090;19.702;2022-08-21T08:44:08;23.20;99.90
24017;DHT22;12222;50.090;19.702;2022-08-21T08:49:36;23.30;99.90
24017;DHT22;12222;50.090;19.702;2022-08-21T08:55:04;23.50;99.90
24017;DHT22;12222;50.090;19.702;2022-08-21T09:00:29;23.60;99.90
24017;DHT22;12222;50.090;19.702;2022-08-21T09:06:02;23.50;99.90
24017;DHT22;12222;50.090;19.702;2022-08-21T09:11:37;23.60;99.90
24017;DHT22;12222;50.090;19.702;2022-08-21T09:17:12;23.90;99.90
24017;DHT22;12222;50.090;19.702;2022-08-21T09:22:49;24.20;99.90
24017;DHT22;12222;50.090;19.702;2022-08-21T09:28:19;23.90;99.90
24017;DHT22;12222;50.090;19.702;2022-08-21T09:33:42;23.70;99.90
24017;DHT22;12222;50.090;19.702;2022-08-21T09:39:07;23.60;99.90
24017;DHT22;12222;50.090;19.702;2022-08-21T09:44:34;23.40;99.90
24017;DHT22;12222;50.090;19.702;2022-08-21T09:50:11;23.40;99.90
24017;DHT22;12222;50.090;19.702;2022-08-21T09:55:49;23.10;99.90
24017;DHT22;12222;50.090;19.702;2022-08-21T10:01:31;23.80;99.90
24017;DHT22;12222;50.090;19.702;2022-08-21T10:06:54;23.80;99.90
24017;DHT22;12222;50.090;19.702;2022-08-21T10:12:23;23.30;99.90
24017;DHT22;12222;50.090;19.702;2022-08-21T10:18:13;23.40;99.90
24017;DHT22;12222;50.090;19.702;2022-08-21T10:35:17;23.70;99.90
24017;DHT22;12222;50.090;19.702;2022-08-21T10:40:50;23.50;99.90
24017;DHT22;12222;50.090;19.702;2022-08-21T11:08:55;22.30;99.90
24017;DHT22;12222;50.090;19.702;2022-08-21T11:20:15;22.80;99.90
24017;DHT22;12222;50.090;19.702;2022-08-21T11:25:55;23.10;99.90
24017;DHT22;12222;50.090;19.702;2022-08-21T11:31:27;23.60;99.90
24017;DHT22;12222;50.090;19.702;2022-08-21T11:37:06;23.50;99.90
24017;DHT22;12222;50.090;19.702;2022-08-21T11:42:41;23.60;99.90
24017;DHT22;12222;50.090;19.702;2022-08-21T11:53:55;25.50;99.90
24017;DHT22;12222;50.090;19.702;2022-08-21T11:59:28;26.00;99.90
24017;DHT22;12222;50.090;19.702;2022-08-21T12:05:04;26.10;99.90
24017;DHT22;12222;50.090;19.702;2022-08-21T12:10:42;26.10;99.90
24017;DHT22;12222;50.090;19.702;2022-08-21T12:16:15;26.70;99.90
24017;DHT22;12222;50.090;19.702;2022-08-21T12:27:20;26.70;99.90
24017;DHT22;12222;50.090;19.702;2022-08-21T12:33:05;26.80;99.90
24017;DHT22;12222;50.090;19.702;2022-08-21T12:38:49;26.40;99.90
24017;DHT22;12222;50.090;19.702;2022-08-21T12:44:22;25.90;99.90
24017;DHT22;12222;50.090;19.702;2022-08-21T12:50:09;25.50;99.90
24017;DHT22;12222;50.090;19.702;2022-08-21T12:55:34;25.30;99.90
24017;DHT22;12222;50.090;19.702;2022-08-21T13:01:13;25.00;99.90
24017;DHT22;12222;50.090;19.702;2022-08-21T13:06:44;24.90;99.90
24017;DHT22;12222;50.090;19.702;2022-08-21T13:12:08;24.70;99.90
24017;DHT22;12222;50.090;19.702;2022-08-21T13:17:34;24.90;99.90
24017;DHT22;12222;50.090;19.702;2022-08-21T13:23:01;24.90;99.90
24017;DHT22;12222;50.090;19.702;2022-08-21T13:28:33;25.00;99.90
24017;DHT22;12222;50.090;19.702;2022-08-21T13:33:56;25.40;99.90
24017;DHT22;12222;50.090;19.702;2022-08-21T13:39:20;25.00;99.90
24017;DHT22;12222;50.090;19.702;2022-08-21T13:44:46;24.30;99.90
24017;DHT22;12222;50.090;19.702;2022-08-21T13:50:15;24.10;99.90
24017;DHT22;12222;50.090;19.702;2022-08-21T13:55:43;24.00;99.90
24017;DHT22;12222;50.090;19.702;2022-08-21T14:01:15;23.70;99.90
24017;DHT22;12222;50.090;19.702;2022-08-21T14:06:43;23.50;99.90
24017;DHT22;12222;50.090;19.702;2022-08-21T14:12:28;23.20;99.90
24017;DHT22;12222;50.090;19.702;2022-08-21T14:17:52;22.90;99.90
24017;DHT22;12222;50.090;19.702;2022-08-21T14:23:25;22.80;99.90
24017;DHT22;12222;50.090;19.702;2022-08-21T14:28:48;22.60;99.90
24017;DHT22;12222;50.090;19.702;2022-08-21T14:34:12;22.30;99.90
24017;DHT22;12222;50.090;19.702;2022-08-21T14:39:41;22.20;99.90
24017;DHT22;12222;50.090;19.702;2022-08-21T14:45:27;22.00;99.90
24017;DHT22;12222;50.090;19.702;2022-08-21T14:50:50;21.80;99.90
24017;DHT22;12222;50.090;19.702;2022-08-21T14:56:21;21.70;99.90
24017;DHT22;12222;50.090;19.702;2022-08-21T15:01:44;21.50;99.90
24017;DHT22;12222;50.090;19.702;2022-08-21T15:07:07;21.40;99.90
24017;DHT22;12222;50.090;19.702;2022-08-21T15:12:29;21.20;99.90
24017;DHT22;12222;50.090;19.702;2022-08-21T15:17:52;21.00;99.90
24017;DHT22;12222;50.090;19.702;2022-08-21T15:23:15;20.70;99.90
24017;DHT22;12222;50.090;19.702;2022-08-21T15:28:38;20.40;99.90
24017;DHT22;12222;50.090;19.702;2022-08-21T15:34:01;19.90;99.90
24017;DHT22;12222;50.090;19.702;2022-08-21T15:39:25;19.60;99.90
24017;DHT22;12222;50.090;19.702;2022-08-21T15:44:54;19.40;99.90
24017;DHT22;12222;50.090;19.702;2022-08-21T15:50:17;19.20;99.90
24017;DHT22;12222;50.090;19.702;2022-08-21T15:55:40;19.20;99.90
24017;DHT22;12222;50.090;19.702;2022-08-21T16:01:03;19.20;99.90
24017;DHT22;12222;50.090;19.702;2022-08-21T16:06:25;18.90;99.90
24017;DHT22;12222;50.090;19.702;2022-08-21T16:12:00;18.80;99.90
24017;DHT22;12222;50.090;19.702;2022-08-21T16:17:28;18.70;99.90
24017;DHT22;12222;50.090;19.702;2022-08-21T16:22:53;18.70;99.90
24017;DHT22;12222;50.090;19.702;2022-08-21T16:28:17;18.50;99.90
24017;DHT22;12222;50.090;19.702;2022-08-21T16:33:43;18.50;99.90
24017;DHT22;12222;50.090;19.702;2022-08-21T16:39:07;18.40;99.90
24017;DHT22;12222;50.090;19.702;2022-08-21T16:44:30;18.30;99.90
24017;DHT22;12222;50.090;19.702;2022-08-21T16:49:58;18.20;99.90
24017;DHT22;12222;50.090;19.702;2022-08-21T16:55:21;18.10;99.90
24017;DHT22;12222;50.090;19.702;2022-08-21T17:00:43;17.90;99.90
24017;DHT22;12222;50.090;19.702;2022-08-21T17:06:07;17.80;99.90
24017;DHT22;12222;50.090;19.702;2022-08-21T17:11:33;17.70;99.90
24017;DHT22;12222;50.090;19.702;2022-08-21T17:17:00;17.70;99.90
24017;DHT22;12222;50.090;19.702;2022-08-21T17:22:24;17.70;99.90
24017;DHT22;12222;50.090;19.702;2022-08-21T17:27:48;17.60;99.90
24017;DHT22;12222;50.090;19.702;2022-08-21T17:33:15;17.60;99.90
24017;DHT22;12222;50.090;19.702;2022-08-21T17:38:47;17.60;99.90
24017;DHT22;12222;50.090;19.702;2022-08-21T17:44:11;17.50;99.90
24017;DHT22;12222;50.090;19.702;2022-08-21T17:49:40;17.50;99.90
24017;DHT22;12222;50.090;19.702;2022-08-21T17:55:04;17.50;99.90
24017;DHT22;12222;50.090;19.702;2022-08-21T18:00:30;17.50;99.90
24017;DHT22;12222;50.090;19.702;2022-08-21T18:05:55;17.30;99.90
24017;DHT22;12222;50.090;19.702;2022-08-21T18:11:30;17.20;99.90
24017;DHT22;12222;50.090;19.702;2022-08-21T18:17:06;17.20;99.90
24017;DHT22;12222;50.090;19.702;2022-08-21T18:22:30;17.10;99.90
24017;DHT22;12222;50.090;19.702;2022-08-21T18:28:06;17.10;99.90
24017;DHT22;12222;50.090;19.702;2022-08-21T18:33:30;17.20;99.90
24017;DHT22;12222;50.090;19.702;2022-08-21T18:39:20;17.00;99.90
24017;DHT22;12222;50.090;19.702;2022-08-21T18:45:02;17.10;99.90
24017;DHT22;12222;50.090;19.702;2022-08-21T18:50:26;16.90;99.90
24017;DHT22;12222;50.090;19.702;2022-08-21T18:55:51;16.80;99.90
24017;DHT22;12222;50.090;19.702;2022-08-21T19:01:27;16.80;99.90
24017;DHT22;12222;50.090;19.702;2022-08-21T19:06:50;16.80;99.90
24017;DHT22;12222;50.090;19.702;2022-08-21T19:12:19;16.60;99.90
24017;DHT22;12222;50.090;19.702;2022-08-21T19:17:46;16.60;99.90
24017;DHT22;12222;50.090;19.702;2022-08-21T19:23:13;16.60;99.90
24017;DHT22;12222;50.090;19.702;2022-08-21T19:28:41;16.60;99.90
24017;DHT22;12222;50.090;19.702;2022-08-21T19:34:14;16.60;99.90
24017;DHT22;12222;50.090;19.702;2022-08-21T19:39:41;16.50;99.90
24017;DHT22;12222;50.090;19.702;2022-08-21T19:45:17;16.40;99.90
24017;DHT22;12222;50.090;19.702;2022-08-21T19:50:43;16.40;99.90
24017;DHT22;12222;50.090;19.702;2022-08-21T19:56:09;16.30;99.90
24017;DHT22;12222;50.090;19.702;2022-08-21T20:01:40;16.40;99.90
24017;DHT22;12222;50.090;19.702;2022-08-21T20:07:06;16.30;99.90
24017;DHT22;12222;50.090;19.702;2022-08-21T20:12:29;16.30;99.90
24017;DHT22;12222;50.090;19.702;2022-08-21T20:17:52;16.30;99.90
24017;DHT22;12222;50.090;19.702;2022-08-21T20:23:15;16.30;99.90
24017;DHT22;12222;50.090;19.702;2022-08-21T20:28:51;16.30;99.90
24017;DHT22;12222;50.090;19.702;2022-08-21T20:34:15;16.20;99.90
24017;DHT22;12222;50.090;19.702;2022-08-21T20:39:39;16.20;99.90
24017;DHT22;12222;50.090;19.702;2022-08-21T20:45:03;16.20;99.90
24017;DHT22;12222;50.090;19.702;2022-08-21T20:50:34;16.20;99.90
24017;DHT22;12222;50.090;19.702;2022-08-21T20:55:59;16.10;99.90
24017;DHT22;12222;50.090;19.702;2022-08-21T21:01:24;16.10;99.90
24017;DHT22;12222;50.090;19.702;2022-08-21T21:06:51;16.10;99.90
24017;DHT22;12222;50.090;19.702;2022-08-21T21:12:26;16.00;99.90
24017;DHT22;12222;50.090;19.702;2022-08-21T21:18:01;16.00;99.90
24017;DHT22;12222;50.090;19.702;2022-08-21T21:23:37;16.00;99.90
24017;DHT22;12222;50.090;19.702;2022-08-21T21:29:31;16.10;99.90
24017;DHT22;12222;50.090;19.702;2022-08-21T21:34:51;16.10;99.90
24017;DHT22;12222;50.090;19.702;2022-08-21T21:46:13;16.20;99.90
24017;DHT22;12222;50.090;19.702;2022-08-21T21:57:52;16.00;99.90
24017;DHT22;12222;50.090;19.702;2022-08-21T22:03:26;16.00;99.90
24017;DHT22;12222;50.090;19.702;2022-08-21T22:14:46;16.00;99.90
24017;DHT22;12222;50.090;19.702;2022-08-21T22:20:56;16.00;99.90
24017;DHT22;12222;50.090;19.702;2022-08-21T22:26:09;16.00;99.90
24017;DHT22;12222;50.090;19.702;2022-08-21T22:31:32;16.10;99.90
24017;DHT22;12222;50.090;19.702;2022-08-21T22:37:02;16.00;99.90
24017;DHT22;12222;50.090;19.702;2022-08-21T22:42:26;16.00;99.90
24017;DHT22;12222;50.090;19.702;2022-08-21T22:47:50;16.00;99.90
24017;DHT22;12222;50.090;19.702;2022-08-21T22:53:23;16.00;99.90
24017;DHT22;12222;50.090;19.702;2022-08-21T22:58:55;16.00;99.90
24017;DHT22;12222;50.090;19.702;2022-08-21T23:04:22;16.10;99.90
24017;DHT22;12222;50.090;19.702;2022-08-21T23:09:47;16.10;99.90
24017;DHT22;12222;50.090;19.702;2022-08-21T23:15:15;16.10;99.90
24017;DHT22;12222;50.090;19.702;2022-08-21T23:20:50;16.10;99.90
24017;DHT22;12222;50.090;19.702;2022-08-21T23:26:22;16.00;99.90
24017;DHT22;12222;50.090;19.702;2022-08-21T23:37:58;16.10;99.90
24017;DHT22;12222;50.090;19.702;2022-08-21T23:49:29;16.10;99.90
